createdAt,value
2019-04-07T00:01:52.643Z,16.70
2019-04-07T00:04:23.695Z,16.85
2019-04-07T00:06:54.471Z,16.62
2019-04-07T00:09:24.979Z,16.15
2019-04-07T00:11:55.368Z,17.10
2019-04-07T00:14:26.130Z,16.30
2019-04-07T00:16:57.480Z,18.02
2019-04-07T00:19:28.357Z,16.40
2019-04-07T00:21:59.329Z,17.05
2019-04-07T00:24:29.766Z,17.02
2019-04-07T00:27:00.165Z,16.17
2019-04-07T00:29:31.600Z,16.90
2019-04-07T00:32:02.541Z,17.15
2019-04-07T00:34:33.030Z,16.50
2019-04-07T00:37:03.419Z,16.50
2019-04-07T00:39:33.780Z,17.73
2019-04-07T00:42:04.171Z,16.77
2019-04-07T00:44:34.607Z,16.65
2019-04-07T00:47:05.239Z,15.80
2019-04-07T00:49:35.756Z,16.32
2019-04-07T00:52:08.350Z,18.17
2019-04-07T00:54:40.241Z,17.90
2019-04-07T00:57:11.236Z,17.27
2019-04-07T00:59:41.598Z,17.55
2019-04-07T01:02:12.285Z,16.52
2019-04-07T01:04:43.010Z,17.40
2019-04-07T01:07:14.534Z,16.60
2019-04-07T01:09:45.330Z,17.15
2019-04-07T01:12:15.706Z,16.77
2019-04-07T01:14:46.686Z,17.52
2019-04-07T01:17:17.128Z,17.30
2019-04-07T01:19:47.483Z,17.70
2019-04-07T01:22:17.870Z,18.40
2019-04-07T01:24:48.452Z,17.87
2019-04-07T01:27:19.209Z,18.42
2019-04-07T01:29:49.647Z,16.80
2019-04-07T01:32:20.303Z,17.95
2019-04-07T01:34:50.685Z,17.57
2019-04-07T01:37:21.083Z,17.77
2019-04-07T01:39:51.441Z,18.35
2019-04-07T01:42:26.436Z,18.07
2019-04-07T01:45:13.822Z,18.75
2019-04-07T01:47:54.948Z,16.90
2019-04-07T01:50:45.298Z,17.48
2019-04-07T01:53:23.336Z,18.12
2019-04-07T01:56:07.622Z,18.37
2019-04-07T01:58:56.148Z,18.73
2019-04-07T02:01:29.663Z,19.20
2019-04-07T02:04:04.961Z,18.55
2019-04-07T02:06:49.516Z,17.87
2019-04-07T02:09:37.947Z,18.17
2019-04-07T02:12:10.411Z,18.87
2019-04-07T02:14:45.578Z,18.75
2019-04-07T02:17:21.015Z,18.73
2019-04-07T02:19:53.363Z,17.98
2019-04-07T02:22:42.406Z,19.25
2019-04-07T02:25:14.659Z,18.92
2019-04-07T02:27:52.394Z,18.77
2019-04-07T02:30:39.618Z,18.52
2019-04-07T02:33:21.088Z,17.85
2019-04-07T02:36:17.821Z,18.20
2019-04-07T02:38:52.463Z,18.52
2019-04-07T02:41:43.630Z,18.90
2019-04-07T02:44:18.075Z,18.90
2019-04-07T02:47:03.050Z,18.50
2019-04-07T02:49:38.084Z,18.37
2019-04-07T02:52:18.822Z,18.95
2019-04-07T02:54:51.506Z,18.02
2019-04-07T02:57:27.072Z,19.00
2019-04-07T02:59:59.655Z,17.87
2019-04-07T03:02:44.042Z,17.50
2019-04-07T03:05:25.024Z,18.55
2019-04-07T03:08:13.279Z,19.07
2019-04-07T03:14:03.656Z,18.20
2019-04-07T03:16:36.044Z,19.17
2019-04-07T03:19:11.075Z,18.75
2019-04-07T03:21:52.513Z,19.05
2019-04-07T03:24:42.982Z,18.62
2019-04-07T03:27:20.840Z,18.37
2019-04-07T03:29:58.901Z,18.42
2019-04-07T03:32:32.987Z,18.87
2019-04-07T03:35:17.295Z,19.23
2019-04-07T03:37:59.319Z,18.73
2019-04-07T03:40:48.249Z,19.25
2019-04-07T03:43:26.399Z,19.87
2019-04-07T03:45:59.085Z,19.20
2019-04-07T03:48:36.990Z,19.42
2019-04-07T03:51:12.049Z,19.52
2019-04-07T03:53:54.010Z,19.60
2019-04-07T03:56:35.663Z,18.87
2019-04-07T03:59:25.332Z,18.98
2019-04-07T04:02:09.867Z,20.10
2019-04-07T04:04:52.108Z,18.70
2019-04-07T04:07:33.066Z,19.52
2019-04-07T04:10:08.434Z,19.85
2019-04-07T04:12:41.604Z,21.00
2019-04-07T04:15:15.107Z,19.90
2019-04-07T04:17:45.749Z,19.80
2019-04-07T04:20:16.303Z,19.75
2019-04-07T04:22:48.573Z,19.23
2019-04-07T04:25:21.277Z,19.48
2019-04-07T04:27:52.816Z,19.50
2019-04-07T04:30:23.580Z,20.10
2019-04-07T04:32:54.298Z,19.48
2019-04-07T04:35:24.839Z,20.88
2019-04-07T04:37:56.388Z,19.77
2019-04-07T04:40:28.046Z,20.35
2019-04-07T04:42:58.575Z,20.90
2019-04-07T04:45:29.584Z,20.37
2019-04-07T04:48:00.226Z,21.17
2019-04-07T04:50:30.627Z,20.48
2019-04-07T04:53:01.972Z,19.10
2019-04-07T04:55:32.456Z,21.12
2019-04-07T04:58:04.159Z,19.92
2019-04-07T05:00:34.649Z,20.75
2019-04-07T05:03:05.046Z,20.50
2019-04-07T05:05:35.696Z,20.95
2019-04-07T05:08:06.835Z,21.17
2019-04-07T05:10:37.290Z,19.73
2019-04-07T05:13:09.657Z,20.50
2019-04-07T05:15:40.185Z,20.35
2019-04-07T05:18:10.855Z,21.27
2019-04-07T05:20:42.684Z,20.60
2019-04-07T05:23:13.234Z,20.75
2019-04-07T05:25:43.809Z,20.55
2019-04-07T05:28:14.304Z,20.43
2019-04-07T05:30:45.332Z,20.55
2019-04-07T05:33:16.548Z,20.82
2019-04-07T05:35:46.957Z,19.23
2019-04-07T05:38:19.069Z,19.80
2019-04-07T05:40:50.053Z,20.57
2019-04-07T05:43:20.510Z,20.43
2019-04-07T05:45:50.980Z,19.42
2019-04-07T05:48:21.582Z,19.02
2019-04-07T05:50:51.964Z,18.70
2019-04-07T05:53:22.319Z,19.10
2019-04-07T05:55:54.139Z,19.82
2019-04-07T05:58:24.772Z,19.50
2019-04-07T06:00:55.263Z,21.17
2019-04-07T06:03:26.283Z,19.50
2019-04-07T06:05:57.882Z,19.42
2019-04-07T06:08:35.550Z,19.55
2019-04-07T06:11:02.100Z,19.62
2019-04-07T06:13:32.956Z,18.60
2019-04-07T06:16:03.335Z,19.17
2019-04-07T06:18:34.254Z,19.92
2019-04-07T06:21:04.865Z,19.07
2019-04-07T06:23:35.446Z,18.90
2019-04-07T06:26:09.274Z,18.65
2019-04-07T06:28:38.121Z,17.65
2019-04-07T06:31:09.496Z,18.92
2019-04-07T06:33:40.440Z,18.35
2019-04-07T06:36:11.564Z,17.98
2019-04-07T06:38:46.459Z,18.62
2019-04-07T06:41:13.995Z,19.40
2019-04-07T06:43:44.360Z,17.90
2019-04-07T06:49:13.800Z,20.25
2019-04-07T06:51:45.230Z,20.43
2019-04-07T06:54:22.248Z,19.27
2019-04-07T06:56:57.037Z,20.05
2019-04-07T06:59:35.248Z,19.52
2019-04-07T07:02:24.000Z,20.05
2019-04-07T07:05:05.539Z,20.52
2019-04-07T07:07:48.318Z,20.20
2019-04-07T07:10:30.157Z,20.25
2019-04-07T07:13:05.094Z,20.35
2019-04-07T07:15:36.458Z,22.17
2019-04-07T07:18:21.295Z,20.92
2019-04-07T07:20:58.042Z,20.97
2019-04-07T07:23:32.021Z,21.30
2019-04-07T07:26:03.307Z,20.15
2019-04-07T07:28:34.818Z,21.07
2019-04-07T07:31:05.397Z,20.80
2019-04-07T07:33:38.393Z,19.85
2019-04-07T07:36:08.040Z,19.12
2019-04-07T07:38:38.546Z,19.73
2019-04-07T07:41:09.166Z,19.17
2019-04-07T07:43:41.498Z,18.50
2019-04-07T07:46:11.967Z,17.92
2019-04-07T07:48:42.346Z,17.85
2019-04-07T07:51:14.304Z,17.50
2019-04-07T07:53:44.983Z,17.12
2019-04-07T07:56:16.056Z,16.73
2019-04-07T07:58:47.233Z,15.98
2019-04-07T08:01:17.903Z,15.63
2019-04-07T08:03:51.731Z,16.00
2019-04-07T08:06:20.588Z,14.93
2019-04-07T08:08:51.469Z,15.35
2019-04-07T08:11:21.893Z,15.08
2019-04-07T08:13:52.519Z,15.30
2019-04-07T08:16:23.031Z,15.10
2019-04-07T08:18:53.397Z,13.18
2019-04-07T08:21:23.797Z,13.95
2019-04-07T08:23:54.613Z,13.72
2019-04-07T08:26:26.008Z,13.70
2019-04-07T08:28:56.584Z,13.40
2019-04-07T08:31:28.259Z,13.53
2019-04-07T08:34:00.038Z,13.50
2019-04-07T08:36:30.680Z,12.58
2019-04-07T08:39:01.039Z,12.55
2019-04-07T08:41:33.469Z,12.75
2019-04-07T08:44:03.916Z,12.35
2019-04-07T08:46:38.651Z,12.82
2019-04-07T08:49:07.655Z,12.00
2019-04-07T08:51:38.131Z,12.05
2019-04-07T08:54:08.588Z,11.55
2019-04-07T08:56:39.128Z,11.73
2019-04-07T08:59:12.203Z,11.05
2019-04-07T09:01:41.711Z,11.75
2019-04-07T09:04:15.131Z,11.80
2019-04-07T09:06:44.885Z,11.80
2019-04-07T09:09:15.689Z,12.18
2019-04-07T09:11:46.947Z,11.08
2019-04-07T09:14:18.394Z,11.25
2019-04-07T09:17:06.941Z,10.70
2019-04-07T09:19:44.878Z,11.10
2019-04-07T09:22:30.681Z,12.15
2019-04-07T09:25:18.189Z,11.38
2019-04-07T09:27:51.033Z,11.50
2019-04-07T09:30:27.268Z,10.75
2019-04-07T09:33:18.071Z,11.12
2019-04-07T09:36:10.133Z,10.50
2019-04-07T09:38:56.957Z,10.48
2019-04-07T09:41:43.965Z,9.63
2019-04-07T09:44:22.302Z,10.05
2019-04-07T09:47:11.263Z,10.55
2019-04-07T09:49:48.489Z,9.80
2019-04-07T09:52:26.169Z,10.28
2019-04-07T09:55:09.369Z,9.85
2019-04-07T09:57:41.939Z,10.35
2019-04-07T10:00:15.953Z,10.08
2019-04-07T10:02:48.105Z,10.90
2019-04-07T10:05:26.475Z,10.40
2019-04-07T10:07:59.461Z,18.77
2019-04-07T10:10:41.443Z,10.10
2019-04-07T10:13:17.821Z,9.93
2019-04-07T10:16:02.868Z,10.35
2019-04-07T10:18:40.683Z,9.48
2019-04-07T10:21:14.299Z,10.40
2019-04-07T10:23:50.482Z,10.50
2019-04-07T10:26:39.288Z,10.90
2019-04-07T10:29:23.159Z,10.40
2019-04-07T10:32:11.333Z,10.03
2019-04-07T10:35:02.459Z,10.43
2019-04-07T10:37:53.217Z,10.05
2019-04-07T10:40:31.154Z,10.88
2019-04-07T10:43:04.092Z,10.55
2019-04-07T10:45:36.236Z,10.55
2019-04-07T10:48:14.369Z,10.25
2019-04-07T10:50:50.218Z,10.38
2019-04-07T10:53:37.320Z,10.23
2019-04-07T10:56:15.342Z,10.40
2019-04-07T10:59:04.346Z,10.38
2019-04-07T11:01:42.320Z,10.55
2019-04-07T11:04:30.683Z,10.90
2019-04-07T11:07:18.784Z,10.90
2019-04-07T11:10:00.113Z,10.68
2019-04-07T11:12:48.357Z,11.00
2019-04-07T11:15:26.986Z,10.55
2019-04-07T11:17:59.278Z,9.83
2019-04-07T11:20:34.057Z,11.12
2019-04-07T11:23:06.255Z,10.53
2019-04-07T11:25:56.868Z,9.90
2019-04-07T11:28:41.226Z,10.50
2019-04-07T11:31:13.317Z,10.10
2019-04-07T11:33:55.359Z,10.03
2019-04-07T11:36:30.974Z,10.05
2019-04-07T11:39:03.104Z,10.85
2019-04-07T11:41:50.405Z,10.50
2019-04-07T11:44:22.912Z,10.38
2019-04-07T11:46:58.263Z,9.58
2019-04-07T11:49:30.267Z,9.53
2019-04-07T11:52:11.502Z,10.08
2019-04-07T11:54:46.406Z,9.90
2019-04-07T11:57:18.440Z,9.90
2019-04-07T12:00:06.386Z,9.40
2019-04-07T12:02:51.839Z,9.78
2019-04-07T12:05:25.086Z,9.88
2019-04-07T12:08:00.632Z,8.90
2019-04-07T12:10:54.192Z,9.53
2019-04-07T12:13:33.680Z,8.90
2019-04-07T12:16:37.970Z,9.45
2019-04-07T12:19:11.325Z,8.35
2019-04-07T12:21:49.401Z,9.15
2019-04-07T12:24:24.933Z,9.78
2019-04-07T12:27:12.655Z,9.20
2019-04-07T12:30:03.124Z,8.98
2019-04-07T12:32:35.947Z,9.93
2019-04-07T12:35:09.285Z,9.63
2019-04-07T12:37:59.121Z,9.58
2019-04-07T12:40:36.725Z,9.40
2019-04-07T12:43:12.068Z,10.38
2019-04-07T12:45:49.359Z,9.75
2019-04-07T12:48:21.409Z,9.33
2019-04-07T12:50:54.121Z,8.90
2019-04-07T12:53:38.974Z,8.43
2019-04-07T12:56:11.407Z,9.05
2019-04-07T12:58:52.670Z,8.63
2019-04-07T13:01:37.148Z,9.25
2019-04-07T13:04:15.463Z,9.25
2019-04-07T13:07:06.826Z,9.15
2019-04-07T13:09:38.856Z,8.70
2019-04-07T13:12:14.052Z,9.33
2019-04-07T13:14:47.541Z,8.90
2019-04-07T13:17:30.637Z,9.35
2019-04-07T13:20:06.198Z,9.63
2019-04-07T13:22:47.571Z,8.98
2019-04-07T13:25:38.591Z,8.65
2019-04-07T13:28:11.008Z,9.03
2019-04-07T13:30:43.330Z,9.45
2019-04-07T13:33:20.387Z,12.23
2019-04-07T13:36:03.859Z,9.40
2019-04-07T13:38:54.505Z,10.32
2019-04-07T13:41:45.939Z,9.35
2019-04-07T13:44:18.364Z,9.88
2019-04-07T13:46:50.396Z,8.93
2019-04-07T13:49:27.432Z,9.48
2019-04-07T13:52:05.306Z,8.58
2019-04-07T13:54:52.638Z,8.83
2019-04-07T13:57:30.993Z,9.50
2019-04-07T14:00:06.411Z,9.00
2019-04-07T14:02:42.174Z,9.30
2019-04-07T14:05:21.226Z,10.50
2019-04-07T14:08:00.147Z,9.55
2019-04-07T14:10:49.262Z,10.72
2019-04-07T14:13:27.494Z,10.18
2019-04-07T14:16:16.026Z,9.73
2019-04-07T14:18:54.594Z,10.35
2019-04-07T14:21:27.497Z,10.55
2019-04-07T14:24:03.566Z,12.75
2019-04-07T14:26:51.857Z,9.55
2019-04-07T14:29:32.813Z,49.00
2019-04-07T14:32:14.208Z,11.93
2019-04-07T14:35:02.206Z,10.35
2019-04-07T14:37:47.297Z,9.83
2019-04-07T14:40:36.500Z,9.40
2019-04-07T14:43:14.676Z,13.30
2019-04-07T14:45:48.516Z,9.55
2019-04-07T14:48:32.630Z,10.08
2019-04-07T14:51:07.544Z,10.43
2019-04-07T14:53:54.819Z,27.98
2019-04-07T14:56:36.821Z,36.08
2019-04-07T14:59:21.952Z,13.30
2019-04-07T15:02:00.073Z,11.25
2019-04-07T15:04:46.678Z,11.25
2019-04-07T15:07:35.283Z,10.88
2019-04-07T15:10:14.619Z,10.63
2019-04-07T15:12:45.741Z,10.20
2019-04-07T15:15:17.037Z,10.82
2019-04-07T15:17:48.801Z,9.30
2019-04-07T15:20:19.662Z,9.73
2019-04-07T15:22:50.082Z,10.40
2019-04-07T15:25:20.455Z,9.48
2019-04-07T15:27:55.250Z,10.15
2019-04-07T15:30:22.909Z,9.65
2019-04-07T15:32:53.305Z,9.58
2019-04-07T15:35:47.867Z,10.30
2019-04-07T15:38:15.370Z,9.45
2019-04-07T15:40:47.080Z,9.38
2019-04-07T15:43:17.575Z,9.08
2019-04-07T15:45:48.700Z,8.68
2019-04-07T15:48:21.452Z,10.20
2019-04-07T15:50:51.776Z,9.15
2019-04-07T15:53:22.247Z,9.48
2019-04-07T15:56:01.148Z,12.43
2019-04-07T15:58:26.762Z,11.60
2019-04-07T16:00:56.763Z,8.70
2019-04-07T16:03:39.568Z,9.00
2019-04-07T16:06:13.673Z,9.65
2019-04-07T16:08:42.019Z,9.03
2019-04-07T16:11:12.643Z,9.35
2019-04-07T16:13:43.051Z,8.95
2019-04-07T16:16:13.518Z,10.20
2019-04-07T16:18:45.392Z,9.45
2019-04-07T16:21:16.280Z,10.20
2019-04-07T16:23:50.310Z,9.70
2019-04-07T16:26:19.694Z,9.68
2019-04-07T16:28:51.979Z,9.63
2019-04-07T16:31:24.281Z,9.63
2019-04-07T16:33:54.523Z,8.98
2019-04-07T16:36:26.382Z,9.23
2019-04-07T16:39:00.417Z,9.33
2019-04-07T16:41:29.140Z,9.68
2019-04-07T16:44:04.214Z,9.03
2019-04-07T16:46:33.809Z,10.05
2019-04-07T16:49:04.544Z,8.80
2019-04-07T16:51:35.149Z,8.98
2019-04-07T16:54:08.718Z,9.83
2019-04-07T16:56:38.039Z,9.40
2019-04-07T16:59:10.126Z,8.73
2019-04-07T17:01:40.500Z,9.50
2019-04-07T17:04:10.910Z,8.93
2019-04-07T17:06:42.139Z,9.25
2019-04-07T17:09:17.762Z,8.93
2019-04-07T17:11:49.264Z,8.70
2019-04-07T17:14:20.352Z,9.20
2019-04-07T17:16:51.400Z,10.03
2019-04-07T17:19:25.642Z,9.55
2019-04-07T17:21:59.099Z,9.78
2019-04-07T17:24:30.542Z,9.30
2019-04-07T17:27:03.065Z,9.30
2019-04-07T17:29:35.026Z,9.30
2019-04-07T17:32:07.905Z,9.58
2019-04-07T17:34:41.703Z,9.05
2019-04-07T17:37:12.104Z,9.73
2019-04-07T17:39:45.021Z,9.48
2019-04-07T17:42:18.438Z,9.70
2019-04-07T17:44:59.783Z,9.58
2019-04-07T17:47:41.656Z,8.95
2019-04-07T17:50:33.750Z,9.63
2019-04-07T17:53:06.504Z,9.63
2019-04-07T17:55:41.029Z,9.33
2019-04-07T17:58:16.366Z,10.28
2019-04-07T18:00:50.692Z,9.58
2019-04-07T18:03:51.934Z,10.20
2019-04-07T18:06:24.414Z,9.53
2019-04-07T18:09:11.673Z,9.65
2019-04-07T18:11:41.610Z,9.65
2019-04-07T18:14:14.282Z,10.63
2019-04-07T18:16:46.956Z,9.85
2019-04-07T18:19:36.253Z,10.28
2019-04-07T18:22:22.615Z,11.28
2019-04-07T18:24:59.843Z,11.30
2019-04-07T18:27:34.635Z,12.30
2019-04-07T18:30:14.540Z,11.85
2019-04-07T18:32:47.598Z,12.60
2019-04-07T18:35:29.794Z,12.30
2019-04-07T18:38:09.120Z,12.93
2019-04-07T18:40:44.030Z,11.88
2019-04-07T18:43:20.278Z,11.57
2019-04-07T18:46:08.532Z,12.80
2019-04-07T18:48:46.530Z,11.80
2019-04-07T18:51:22.020Z,12.23
2019-04-07T18:54:11.135Z,11.68
2019-04-07T18:56:47.447Z,12.53
2019-04-07T18:59:20.249Z,12.05
2019-04-07T19:01:53.346Z,11.75
2019-04-07T19:04:44.536Z,11.48
2019-04-07T19:07:17.253Z,11.43
2019-04-07T19:10:06.440Z,11.30
2019-04-07T19:12:33.203Z,11.80
2019-04-07T19:15:23.009Z,11.12
2019-04-07T19:18:10.005Z,10.50
2019-04-07T19:20:42.986Z,11.30
2019-04-07T19:23:18.430Z,11.95
2019-04-07T19:25:56.619Z,12.35
2019-04-07T19:28:43.950Z,12.65
2019-04-07T19:31:21.954Z,11.30
2019-04-07T19:36:56.808Z,11.50
2019-04-07T19:39:40.557Z,11.60
2019-04-07T19:42:14.450Z,11.40
2019-04-07T19:44:52.061Z,11.22
2019-04-07T19:47:23.282Z,11.30
2019-04-07T19:49:55.446Z,11.55
2019-04-07T19:52:34.197Z,11.20
2019-04-07T19:55:24.967Z,11.22
2019-04-07T19:58:09.777Z,11.68
2019-04-07T20:01:01.218Z,11.73
2019-04-07T20:03:32.039Z,11.18
2019-04-07T20:06:23.925Z,10.63
2019-04-07T20:09:00.123Z,10.80
2019-04-07T20:11:48.417Z,11.53
2019-04-07T20:14:29.205Z,11.65
2019-04-07T20:17:16.450Z,13.20
2019-04-07T20:20:12.283Z,20.70
2019-04-07T20:23:00.803Z,18.40
2019-04-07T20:25:35.905Z,15.48
2019-04-07T20:28:17.460Z,14.68
2019-04-07T20:31:05.722Z,12.98
2019-04-07T20:33:40.923Z,12.25
2019-04-07T20:36:24.183Z,12.65
2019-04-07T20:39:07.371Z,12.45
2019-04-07T20:41:56.767Z,12.00
2019-04-07T20:44:33.032Z,12.60
2019-04-07T20:47:19.685Z,11.68
2019-04-07T20:49:54.400Z,12.23
2019-04-07T20:52:42.784Z,17.02
2019-04-07T20:55:15.588Z,16.62
2019-04-07T20:58:14.433Z,14.85
2019-04-07T21:00:57.618Z,14.03
2019-04-07T21:03:26.504Z,12.80
2019-04-07T21:06:13.142Z,11.93
2019-04-07T21:09:03.623Z,11.90
2019-04-07T21:11:40.489Z,12.20
2019-04-07T21:14:11.171Z,12.40
2019-04-07T21:16:44.341Z,11.28
2019-04-07T21:19:16.678Z,11.05
2019-04-07T21:21:49.318Z,11.68
2019-04-07T21:24:25.452Z,11.80
2019-04-07T21:27:06.589Z,12.20
2019-04-07T21:29:41.439Z,11.88
2019-04-07T21:32:31.229Z,11.65
2019-04-07T21:35:19.288Z,11.68
2019-04-07T21:37:57.102Z,11.90
2019-04-07T21:40:42.142Z,12.47
2019-04-07T21:43:29.356Z,11.43
2019-04-07T21:46:22.259Z,12.88
2019-04-07T21:48:51.577Z,11.95
2019-04-07T21:51:38.527Z,11.85
2019-04-07T21:54:14.004Z,12.35
2019-04-07T21:56:46.103Z,12.30
2019-04-07T21:59:19.701Z,13.55
2019-04-07T22:01:57.951Z,13.10
2019-04-07T22:04:42.214Z,13.25
2019-04-07T22:07:23.372Z,13.25
2019-04-07T22:09:55.433Z,13.75
2019-04-07T22:12:29.561Z,13.45
2019-04-07T22:14:57.886Z,13.43
2019-04-07T22:17:32.732Z,11.80
2019-04-07T22:20:00.606Z,13.05
2019-04-07T22:22:31.130Z,12.40
2019-04-07T22:25:05.981Z,12.58
2019-04-07T22:27:33.610Z,13.03
2019-04-07T22:30:08.025Z,13.53
2019-04-07T22:32:38.620Z,13.40
2019-04-07T22:35:10.535Z,13.32
2019-04-07T22:37:41.826Z,13.62
2019-04-07T22:40:21.415Z,13.53
2019-04-07T22:42:51.781Z,13.18
2019-04-07T22:45:27.776Z,12.73
2019-04-07T22:47:55.073Z,13.83
2019-04-07T22:50:25.611Z,13.53
2019-04-07T22:52:55.967Z,13.53
2019-04-07T22:55:27.025Z,13.05
2019-04-07T22:57:57.861Z,13.88
2019-04-07T23:00:28.785Z,13.28
2019-04-07T23:02:59.485Z,12.90
2019-04-07T23:05:29.917Z,14.00
2019-04-07T23:08:00.299Z,14.47
2019-04-07T23:10:31.570Z,13.93
2019-04-07T23:13:03.615Z,14.28
2019-04-07T23:15:41.287Z,13.35
2019-04-07T23:18:07.360Z,13.83
2019-04-07T23:20:37.741Z,13.90
2019-04-07T23:23:08.858Z,14.35
2019-04-07T23:25:39.234Z,14.43
2019-04-07T23:28:10.291Z,13.13
2019-04-07T23:30:41.859Z,13.55
2019-04-07T23:33:12.507Z,14.07
2019-04-07T23:35:42.821Z,14.38
2019-04-07T23:38:13.414Z,14.68
2019-04-07T23:40:43.844Z,14.78
2019-04-07T23:43:15.214Z,15.15
2019-04-07T23:45:45.764Z,15.18
2019-04-07T23:48:16.140Z,15.30
2019-04-07T23:50:46.597Z,15.28
2019-04-07T23:54:07.452Z,14.85
2019-04-07T23:56:39.782Z,15.20
2019-04-07T23:59:10.393Z,14.75
